This is the latest recevied weather packets stored in our database for station/object K1RFS. If no packets are shown the sender has not sent any weather packets the latest 10 day(s).
| Time | Temp. | Humidity | Pressure | Rain* | Wind** | Luminosity | Snow |
|---|---|---|---|---|---|---|---|
| 1777999679 | 9.44° C | 67% | 996.1 hPa | 0 mm | - | 93 W/m² | - |
| 1777999377 | 9.44° C | 69% | 995.9 hPa | 0 mm | - | 90 W/m² | - |
| 1777999075 | 9.44° C | 70% | 995.7 hPa | 0 mm | - | 115 W/m² | - |
| 1777998773 | 9.44° C | 72% | 995.9 hPa | 0 mm | - | 126 W/m² | - |
| 1777998471 | 9.44° C | 73% | 995.9 hPa | 0 mm | - | 174 W/m² | - |
| 1777998167 | 9.44° C | 73% | 995.9 hPa | 0 mm | - | 139 W/m² | - |
| 1777997865 | 9.44° C | 71% | 996 hPa | 0 mm | - | 96 W/m² | - |
| 1777997562 | 9.44° C | 68% | 996 hPa | 0 mm | - | 71 W/m² | - |
| 1777997259 | 9.44° C | 66% | 996.1 hPa | 0 mm | - | 60 W/m² | - |
| 1777996957 | 10° C | 66% | 996 hPa | 0 mm | - | 64 W/m² | - |
| 1777996653 | 10° C | 65% | 995.8 hPa | 0 mm | - | 68 W/m² | - |
| 1777996349 | 10° C | 65% | 995.9 hPa | 0 mm | - | 60 W/m² | - |
| 1777996046 | 10° C | 64% | 995.8 hPa | 0 mm | - | 44 W/m² | - |
| 1777995742 | 10° C | 63% | 995.7 hPa | 0 mm | - | 52 W/m² | - |
| 1777995438 | 10° C | 63% | 995.7 hPa | 0 mm | - | 75 W/m² | - |
| 1777995136 | 10° C | 62% | 995.3 hPa | 0 mm | - | 75 W/m² | - |
| 1777994833 | 10° C | 62% | 995.6 hPa | 0 mm | - | 57 W/m² | - |
| 1777994528 | 10° C | 62% | 995.6 hPa | 0 mm | - | 60 W/m² | - |
| 1777994224 | 10.56° C | 61% | 995.4 hPa | 0 mm | - | 69 W/m² | - |
| 1777993921 | 10.56° C | 61% | 995.4 hPa | 0 mm | - | 62 W/m² | - |
| 1777993617 | 10.56° C | 61% | 995.3 hPa | 0 mm | - | 56 W/m² | - |
| 1777993314 | 10.56° C | 60% | 995.3 hPa | 0 mm | - | 58 W/m² | - |
| 1777993009 | 10.56° C | 60% | 995.2 hPa | 0 mm | - | 58 W/m² | - |
| 1777992709 | 10.56° C | 59% | 995.2 hPa | 0 mm | - | 51 W/m² | - |
| 1777992406 | 10.56° C | 59% | 995.1 hPa | 0 mm | - | 42 W/m² | - |
* Rain latest hour (hover to see other rain measurements)
** Current wind speed in m/s (hover to see current wind gust speed)